createdAt,value
2018-10-18T00:00:36.723Z,18.57
2018-10-18T00:03:04.786Z,17.67
2018-10-18T00:05:32.908Z,17.90
2018-10-18T00:08:01.278Z,17.60
2018-10-18T00:10:29.500Z,17.87
2018-10-18T00:12:57.567Z,17.17
2018-10-18T00:15:25.639Z,16.87
2018-10-18T00:17:53.760Z,17.53
2018-10-18T00:20:21.807Z,16.87
2018-10-18T00:22:49.886Z,17.03
2018-10-18T00:25:17.967Z,16.73
2018-10-18T00:27:46.042Z,17.47
2018-10-18T00:30:14.983Z,17.97
2018-10-18T00:32:43.903Z,18.93
2018-10-18T00:35:12.383Z,17.50
2018-10-18T00:37:40.540Z,17.23
2018-10-18T00:40:10.154Z,17.73
2018-10-18T00:42:38.244Z,16.30
2018-10-18T00:45:07.227Z,16.03
2018-10-18T00:47:35.314Z,17.20
2018-10-18T00:50:03.466Z,16.57
2018-10-18T00:52:31.487Z,17.40
2018-10-18T00:54:59.596Z,15.70
2018-10-18T00:57:27.700Z,16.87
2018-10-18T00:59:55.785Z,16.67
2018-10-18T01:02:23.855Z,17.40
2018-10-18T01:04:51.933Z,16.67
2018-10-18T01:07:19.995Z,16.10
2018-10-18T01:09:48.097Z,17.13
2018-10-18T01:12:16.330Z,17.37
2018-10-18T01:14:44.276Z,17.00
2018-10-18T01:17:12.341Z,16.33
2018-10-18T01:19:40.488Z,15.80
2018-10-18T01:22:08.526Z,17.23
2018-10-18T01:24:37.294Z,16.80
2018-10-18T01:27:05.806Z,16.87
2018-10-18T01:29:33.871Z,17.30
2018-10-18T01:32:01.994Z,16.73
2018-10-18T01:34:30.038Z,17.00
2018-10-18T01:36:58.115Z,16.20
2018-10-18T01:39:26.191Z,16.40
2018-10-18T01:41:54.323Z,16.20
2018-10-18T01:44:22.367Z,16.40
2018-10-18T01:46:50.447Z,16.13
2018-10-18T01:49:18.538Z,17.53
2018-10-18T01:51:46.611Z,17.67
2018-10-18T01:54:14.865Z,17.60
2018-10-18T01:56:42.821Z,16.97
2018-10-18T01:59:10.920Z,16.50
2018-10-18T02:01:39.003Z,17.30
2018-10-18T02:04:07.102Z,16.23
2018-10-18T02:06:35.183Z,17.07
2018-10-18T02:09:03.551Z,16.23
2018-10-18T02:11:31.644Z,17.20
2018-10-18T02:13:59.723Z,17.60
2018-10-18T02:16:27.839Z,17.67
2018-10-18T02:18:55.918Z,17.30
2018-10-18T02:21:23.987Z,17.43
2018-10-18T02:23:52.117Z,16.73
2018-10-18T02:26:26.931Z,17.93
2018-10-18T02:28:55.004Z,17.93
2018-10-18T02:31:23.092Z,17.33
2018-10-18T02:33:51.158Z,18.23
2018-10-18T02:36:19.365Z,17.73
2018-10-18T02:38:47.342Z,17.50
2018-10-18T02:41:15.419Z,17.70
2018-10-18T02:43:43.506Z,17.40
2018-10-18T02:46:11.593Z,17.77
2018-10-18T02:48:39.663Z,17.50
2018-10-18T02:51:07.747Z,17.53
2018-10-18T02:53:35.821Z,17.60
2018-10-18T02:56:03.959Z,18.90
2018-10-18T02:58:31.995Z,17.77
2018-10-18T03:01:00.194Z,19.03
2018-10-18T03:03:28.306Z,17.60
2018-10-18T03:05:56.446Z,17.40
2018-10-18T03:08:24.454Z,17.10
2018-10-18T03:10:52.542Z,17.90
2018-10-18T03:13:20.640Z,19.47
2018-10-18T03:15:48.826Z,18.90
2018-10-18T03:18:16.920Z,19.23
2018-10-18T03:20:44.928Z,19.20
2018-10-18T03:23:13.007Z,19.83
2018-10-18T03:25:41.193Z,19.17
2018-10-18T03:28:09.251Z,19.60
2018-10-18T03:30:37.318Z,18.70
2018-10-18T03:33:05.418Z,20.33
2018-10-18T03:35:33.518Z,19.30
2018-10-18T03:38:01.631Z,19.33
2018-10-18T03:40:29.715Z,17.63
2018-10-18T03:42:57.791Z,19.33
2018-10-18T03:45:25.990Z,18.50
2018-10-18T03:47:54.054Z,19.63
2018-10-18T03:50:22.130Z,19.73
2018-10-18T03:52:50.219Z,19.77
2018-10-18T03:55:18.294Z,19.13
2018-10-18T03:57:46.346Z,18.83
2018-10-18T04:00:14.499Z,19.67
2018-10-18T04:02:42.492Z,19.30
2018-10-18T04:05:10.982Z,19.03
2018-10-18T04:07:39.290Z,18.80
2018-10-18T04:10:07.746Z,20.53
2018-10-18T04:12:35.834Z,18.43
2018-10-18T04:15:03.899Z,19.97
2018-10-18T04:17:31.982Z,19.87
2018-10-18T04:20:00.045Z,20.10
2018-10-18T04:22:28.102Z,19.30
2018-10-18T04:24:56.171Z,18.47
2018-10-18T04:27:24.250Z,18.97
2018-10-18T04:29:52.520Z,19.50
2018-10-18T04:32:20.585Z,18.53
2018-10-18T04:34:48.647Z,17.90
2018-10-18T04:37:16.797Z,19.30
2018-10-18T04:39:44.786Z,19.47
2018-10-18T04:42:12.949Z,19.77
2018-10-18T04:44:40.944Z,19.83
2018-10-18T04:47:09.033Z,18.80
2018-10-18T04:49:37.074Z,19.03
2018-10-18T04:52:05.314Z,18.97
2018-10-18T04:54:33.384Z,20.43
2018-10-18T04:57:01.723Z,19.13
2018-10-18T04:59:29.783Z,18.53
2018-10-18T05:01:57.887Z,18.70
2018-10-18T05:04:25.960Z,19.10
2018-10-18T05:06:54.276Z,19.97
2018-10-18T05:09:22.278Z,19.77
2018-10-18T05:11:50.354Z,18.80
2018-10-18T05:14:18.426Z,19.40
2018-10-18T05:16:46.486Z,18.87
2018-10-18T05:19:21.417Z,19.33
2018-10-18T05:21:49.550Z,18.53
2018-10-18T05:24:17.638Z,19.63
2018-10-18T05:26:45.731Z,17.73
2018-10-18T05:29:13.820Z,19.27
2018-10-18T05:31:41.999Z,19.10
2018-10-18T05:34:10.003Z,19.60
2018-10-18T05:36:38.095Z,20.60
2018-10-18T05:39:08.863Z,21.47
2018-10-18T05:41:36.931Z,20.83
2018-10-18T05:44:05.430Z,22.53
2018-10-18T05:46:33.525Z,21.37
2018-10-18T05:49:01.658Z,21.10
2018-10-18T05:51:29.676Z,21.00
2018-10-18T05:53:57.989Z,22.17
2018-10-18T05:56:32.668Z,20.33
2018-10-18T05:59:00.712Z,20.53
2018-10-18T06:01:28.778Z,21.47
2018-10-18T06:03:56.841Z,20.87
2018-10-18T06:06:24.898Z,20.20
2018-10-18T06:08:52.958Z,20.20
2018-10-18T06:11:25.447Z,20.77
2018-10-18T06:13:53.755Z,20.90
2018-10-18T06:16:22.471Z,20.47
2018-10-18T06:18:50.536Z,20.17
2018-10-18T06:21:18.605Z,20.70
2018-10-18T06:23:46.662Z,22.23
2018-10-18T06:26:14.750Z,19.47
2018-10-18T06:28:42.820Z,19.77
2018-10-18T06:31:11.009Z,19.30
2018-10-18T06:33:39.052Z,20.00
2018-10-18T06:36:07.123Z,19.07
2018-10-18T06:38:35.187Z,20.73
2018-10-18T06:41:03.328Z,19.70
2018-10-18T06:43:36.528Z,19.87
2018-10-18T06:46:06.979Z,21.30
2018-10-18T06:48:35.254Z,19.90
2018-10-18T06:51:03.422Z,21.70
2018-10-18T06:53:31.490Z,21.17
2018-10-18T06:55:59.888Z,22.93
2018-10-18T06:58:27.950Z,21.03
2018-10-18T07:00:56.031Z,21.80
2018-10-18T07:03:24.099Z,21.47
2018-10-18T07:05:52.155Z,21.03
2018-10-18T07:08:20.223Z,21.20
2018-10-18T07:10:48.367Z,19.87
2018-10-18T07:13:16.363Z,20.03
2018-10-18T07:15:44.422Z,20.03
2018-10-18T07:18:12.560Z,20.67
2018-10-18T07:20:40.543Z,20.73
2018-10-18T07:23:08.610Z,20.33
2018-10-18T07:25:36.679Z,19.57
2018-10-18T07:28:04.958Z,20.17
2018-10-18T07:30:33.023Z,20.50
2018-10-18T07:33:01.078Z,22.53
2018-10-18T07:35:29.150Z,33.77
2018-10-18T07:37:57.234Z,33.83
2018-10-18T07:40:25.293Z,25.73
2018-10-18T07:42:53.354Z,22.97
2018-10-18T07:45:21.419Z,23.43
2018-10-18T07:47:49.501Z,22.43
2018-10-18T07:50:17.567Z,22.43
2018-10-18T07:52:45.630Z,22.43
2018-10-18T07:55:13.719Z,21.57
2018-10-18T07:57:41.767Z,23.17
2018-10-18T08:00:12.165Z,23.13
2018-10-18T08:02:40.690Z,22.10
2018-10-18T08:05:09.171Z,21.93
2018-10-18T08:07:37.346Z,24.40
2018-10-18T08:10:07.696Z,23.03
2018-10-18T08:12:35.678Z,23.07
2018-10-18T08:15:03.855Z,22.83
2018-10-18T08:17:32.007Z,21.43
2018-10-18T08:19:59.988Z,22.27
2018-10-18T08:22:28.098Z,21.90
2018-10-18T08:24:56.138Z,23.47
2018-10-18T08:27:24.183Z,23.27
2018-10-18T08:29:52.264Z,23.37
2018-10-18T08:32:20.338Z,23.27
2018-10-18T08:34:48.406Z,23.53
2018-10-18T08:37:16.556Z,23.60
2018-10-18T08:39:44.546Z,24.43
2018-10-18T08:42:12.615Z,23.87
2018-10-18T08:44:40.695Z,23.87
2018-10-18T08:47:08.767Z,26.40
2018-10-18T08:49:37.073Z,25.17
2018-10-18T08:52:05.282Z,25.27
2018-10-18T08:54:33.346Z,23.23
2018-10-18T08:57:01.662Z,25.13
2018-10-18T08:59:29.723Z,25.33
2018-10-18T09:01:57.786Z,23.30
2018-10-18T09:04:25.850Z,26.17
2018-10-18T09:06:54.063Z,25.43
2018-10-18T09:09:22.127Z,25.43
2018-10-18T09:11:50.189Z,25.07
2018-10-18T09:14:18.247Z,26.03
2018-10-18T09:16:46.339Z,24.97
2018-10-18T09:19:14.538Z,25.13
2018-10-18T09:21:42.491Z,26.00
2018-10-18T09:24:10.562Z,24.47
2018-10-18T09:26:38.622Z,24.97
2018-10-18T09:29:06.687Z,25.93
2018-10-18T09:31:34.756Z,26.03
2018-10-18T09:34:02.816Z,26.73
2018-10-18T09:36:30.881Z,27.00
2018-10-18T09:38:58.951Z,25.30
2018-10-18T09:41:27.022Z,25.83
2018-10-18T09:43:58.095Z,25.23
2018-10-18T09:46:26.470Z,26.07
2018-10-18T09:48:54.834Z,25.57
2018-10-18T09:51:22.591Z,25.10
2018-10-18T09:53:50.665Z,24.93
2018-10-18T09:56:18.740Z,24.43
2018-10-18T09:58:46.794Z,24.67
2018-10-18T10:01:20.238Z,24.67
2018-10-18T10:03:48.314Z,24.03
2018-10-18T10:06:16.387Z,25.30
2018-10-18T10:08:44.446Z,24.63
2018-10-18T10:11:12.522Z,23.97
2018-10-18T10:13:40.593Z,24.23
2018-10-18T10:16:08.656Z,24.53
2018-10-18T10:18:36.706Z,24.10
2018-10-18T10:21:04.934Z,24.97
2018-10-18T10:23:33.002Z,24.17
2018-10-18T10:26:01.064Z,23.73
2018-10-18T10:28:29.125Z,23.73
2018-10-18T10:30:57.198Z,22.83
2018-10-18T10:33:25.268Z,21.47
2018-10-18T10:35:53.311Z,22.47
2018-10-18T10:38:21.372Z,22.40
2018-10-18T10:40:49.444Z,22.93
2018-10-18T10:43:17.516Z,20.80
2018-10-18T10:45:45.628Z,21.87
2018-10-18T10:48:13.706Z,21.43
2018-10-18T10:50:41.722Z,21.67
2018-10-18T10:53:09.786Z,21.30
2018-10-18T10:55:37.863Z,20.90
2018-10-18T10:58:06.095Z,20.17
2018-10-18T11:01:08.467Z,20.73
2018-10-18T11:03:36.943Z,21.30
2018-10-18T11:06:05.054Z,21.33
2018-10-18T11:08:33.286Z,20.03
2018-10-18T11:11:01.371Z,21.57
2018-10-18T11:13:30.142Z,21.62
2018-10-18T11:15:59.442Z,21.65
2018-10-18T11:18:27.519Z,21.62
2018-10-18T11:20:55.625Z,20.27
2018-10-18T11:23:23.735Z,19.82
2018-10-18T11:25:51.972Z,19.77
2018-10-18T11:28:20.025Z,20.90
2018-10-18T11:30:48.287Z,20.90
2018-10-18T11:33:16.460Z,19.40
2018-10-18T11:35:44.842Z,19.30
2018-10-18T11:38:14.021Z,19.50
2018-10-18T11:40:42.083Z,19.15
2018-10-18T11:43:10.815Z,19.25
2018-10-18T11:45:39.186Z,18.57
2018-10-18T11:48:08.145Z,18.15
2018-10-18T11:50:36.159Z,18.37
2018-10-18T11:53:04.366Z,21.45
2018-10-18T11:55:32.438Z,25.08
2018-10-18T11:58:00.999Z,18.95
2018-10-18T12:00:29.074Z,17.20
2018-10-18T12:02:57.158Z,18.05
2018-10-18T12:05:25.235Z,18.25
2018-10-18T12:07:53.383Z,17.42
2018-10-18T12:10:21.398Z,17.07
2018-10-18T12:12:49.474Z,17.67
2018-10-18T12:15:17.534Z,18.23
2018-10-18T12:17:45.614Z,16.57
2018-10-18T12:20:15.149Z,16.97
2018-10-18T12:22:43.142Z,18.17
2018-10-18T12:25:11.910Z,18.65
2018-10-18T12:27:40.030Z,18.55
2018-10-18T12:30:08.674Z,17.42
2018-10-18T12:32:36.975Z,18.12
2018-10-18T12:35:05.284Z,19.07
2018-10-18T12:37:33.378Z,18.48
2018-10-18T12:40:01.840Z,18.12
2018-10-18T12:42:29.984Z,16.40
2018-10-18T12:44:58.070Z,16.87
2018-10-18T12:47:26.148Z,16.85
2018-10-18T12:49:54.255Z,17.62
2018-10-18T12:52:22.290Z,18.40
2018-10-18T12:54:50.379Z,16.82
2018-10-18T12:57:18.458Z,16.32
2018-10-18T12:59:46.550Z,17.25
2018-10-18T13:02:14.743Z,17.12
2018-10-18T13:04:42.738Z,18.50
2018-10-18T13:07:10.814Z,19.27
2018-10-18T13:09:38.899Z,18.15
2018-10-18T13:12:07.087Z,16.97
2018-10-18T13:14:35.090Z,16.25
2018-10-18T13:17:03.204Z,16.97
2018-10-18T13:19:31.279Z,17.50
2018-10-18T13:21:59.358Z,17.10
2018-10-18T13:24:27.435Z,18.52
2018-10-18T13:26:55.506Z,16.25
2018-10-18T13:29:23.591Z,17.30
2018-10-18T13:31:51.678Z,16.37
2018-10-18T13:34:19.750Z,16.07
2018-10-18T13:36:47.839Z,15.78
2018-10-18T13:39:16.506Z,16.30
2018-10-18T13:41:44.521Z,16.93
2018-10-18T13:44:12.605Z,17.75
2018-10-18T13:46:40.651Z,15.98
2018-10-18T13:49:08.739Z,14.23
2018-10-18T13:51:36.882Z,14.95
2018-10-18T13:54:05.152Z,14.63
2018-10-18T13:56:33.134Z,15.38
2018-10-18T13:59:01.257Z,15.48
2018-10-18T14:01:29.286Z,13.62
2018-10-18T14:03:57.403Z,14.25
2018-10-18T14:06:25.487Z,14.00
2018-10-18T14:08:53.571Z,14.20
2018-10-18T14:11:21.659Z,14.45
2018-10-18T14:13:49.726Z,13.90
2018-10-18T14:16:17.794Z,13.48
2018-10-18T14:18:45.875Z,14.38
2018-10-18T14:21:13.947Z,13.32
2018-10-18T14:23:42.031Z,13.40
2018-10-18T14:26:10.205Z,13.68
2018-10-18T14:28:38.197Z,13.13
2018-10-18T14:31:06.281Z,12.90
2018-10-18T14:33:34.362Z,13.22
2018-10-18T14:36:02.450Z,12.88
2018-10-18T14:38:30.532Z,12.80
2018-10-18T14:40:58.644Z,13.72
2018-10-18T14:43:26.744Z,12.70
2018-10-18T14:45:54.759Z,13.00
2018-10-18T14:48:22.839Z,12.33
2018-10-18T14:50:50.929Z,13.00
2018-10-18T14:53:19.003Z,10.90
2018-10-18T14:55:47.089Z,11.70
2018-10-18T14:58:15.167Z,11.63
2018-10-18T15:00:43.243Z,10.98
2018-10-18T15:03:11.318Z,11.90
2018-10-18T15:05:39.403Z,11.85
2018-10-18T15:08:07.617Z,11.60
2018-10-18T15:10:35.646Z,11.53
2018-10-18T15:13:03.718Z,11.40
2018-10-18T15:15:31.802Z,11.18
2018-10-18T15:17:59.875Z,11.95
2018-10-18T15:20:27.958Z,10.80
2018-10-18T15:22:56.073Z,12.20
2018-10-18T15:25:24.241Z,11.18
2018-10-18T15:27:52.527Z,11.75
2018-10-18T15:30:20.290Z,11.57
2018-10-18T15:32:48.366Z,12.63
2018-10-18T15:35:16.500Z,11.73
2018-10-18T15:37:44.521Z,11.37
2018-10-18T15:40:12.590Z,10.77
2018-10-18T15:42:40.674Z,11.90
2018-10-18T15:45:09.494Z,11.53
2018-10-18T15:47:37.772Z,11.13
2018-10-18T15:50:07.051Z,10.87
2018-10-18T15:52:35.132Z,11.27
2018-10-18T15:55:04.343Z,10.83
2018-10-18T15:57:32.423Z,10.40
2018-10-18T16:00:00.521Z,10.23
2018-10-18T16:02:28.570Z,9.60
2018-10-18T16:04:56.655Z,10.37
2018-10-18T16:07:24.718Z,9.80
2018-10-18T16:09:52.790Z,9.87
2018-10-18T16:12:20.854Z,9.73
2018-10-18T16:14:48.927Z,9.70
2018-10-18T16:17:17.039Z,10.00
2018-10-18T16:19:45.075Z,10.57
2018-10-18T16:22:13.158Z,11.30
2018-10-18T16:24:41.245Z,10.97
2018-10-18T16:27:09.330Z,11.57
2018-10-18T16:29:37.406Z,11.40
2018-10-18T16:32:05.588Z,11.07
2018-10-18T16:34:33.642Z,10.70
2018-10-18T16:37:01.747Z,11.70
2018-10-18T16:39:29.835Z,11.33
2018-10-18T16:41:57.941Z,11.00
2018-10-18T16:44:26.012Z,10.93
2018-10-18T16:46:54.107Z,11.20
2018-10-18T16:49:22.174Z,10.50
2018-10-18T16:51:50.251Z,10.47
2018-10-18T16:54:18.326Z,10.67
2018-10-18T16:56:46.403Z,10.77
2018-10-18T16:59:14.506Z,10.83
2018-10-18T17:01:42.599Z,10.97
2018-10-18T17:04:10.729Z,10.10
2018-10-18T17:06:38.772Z,10.30
2018-10-18T17:09:08.756Z,10.37
2018-10-18T17:11:36.939Z,11.10
2018-10-18T17:14:05.099Z,11.33
2018-10-18T17:16:33.154Z,11.47
2018-10-18T17:19:01.238Z,11.67
2018-10-18T17:21:29.455Z,11.10
2018-10-18T17:23:57.544Z,12.43
2018-10-18T17:26:25.660Z,12.40
2018-10-18T17:28:53.687Z,13.87
2018-10-18T17:31:21.767Z,13.27
2018-10-18T17:33:49.838Z,13.40
2018-10-18T17:36:18.030Z,12.17
2018-10-18T17:38:46.006Z,12.83
2018-10-18T17:41:14.334Z,12.10
2018-10-18T17:43:42.528Z,12.90
2018-10-18T17:46:10.646Z,12.83
2018-10-18T17:48:38.707Z,12.70
2018-10-18T17:51:06.790Z,13.43
2018-10-18T17:53:34.883Z,13.37
2018-10-18T17:56:03.018Z,14.20
2018-10-18T17:58:31.035Z,13.50
2018-10-18T18:00:59.200Z,14.73
2018-10-18T18:03:27.365Z,14.57
2018-10-18T18:05:55.574Z,15.30
2018-10-18T18:08:23.711Z,14.57
2018-10-18T18:10:51.819Z,14.57
2018-10-18T18:13:19.913Z,14.37
2018-10-18T18:15:48.091Z,15.40
2018-10-18T18:18:16.118Z,14.93
2018-10-18T18:20:44.243Z,15.93
2018-10-18T18:23:12.338Z,15.50
2018-10-18T18:25:40.432Z,16.83
2018-10-18T18:28:08.513Z,16.23
2018-10-18T18:30:36.610Z,15.67
2018-10-18T18:33:04.915Z,16.20
2018-10-18T18:35:32.993Z,15.60
2018-10-18T18:38:01.081Z,16.27
2018-10-18T18:40:29.147Z,16.70
2018-10-18T18:42:57.259Z,16.60
2018-10-18T18:45:29.683Z,16.83
2018-10-18T18:47:57.711Z,16.67
2018-10-18T18:50:25.823Z,15.30
2018-10-18T18:52:53.921Z,17.93
2018-10-18T18:55:22.012Z,17.93
2018-10-18T18:57:50.099Z,18.27
2018-10-18T19:00:18.271Z,16.93
2018-10-18T19:02:46.307Z,17.67
2018-10-18T19:05:14.384Z,16.93
2018-10-18T19:07:42.481Z,17.33
2018-10-18T19:10:10.582Z,17.47
2018-10-18T19:12:38.679Z,16.63
2018-10-18T19:15:07.850Z,16.77
2018-10-18T19:17:36.234Z,16.00
2018-10-18T19:20:04.743Z,16.67
2018-10-18T19:22:32.862Z,16.33
2018-10-18T19:25:00.943Z,16.97
2018-10-18T19:27:29.040Z,18.27
2018-10-18T19:29:57.127Z,18.20
2018-10-18T19:32:25.227Z,18.07
2018-10-18T19:34:53.309Z,17.87
2018-10-18T19:37:21.418Z,19.33
2018-10-18T19:39:49.499Z,19.13
2018-10-18T19:42:17.638Z,18.97
2018-10-18T19:44:45.727Z,20.23
2018-10-18T19:47:13.811Z,18.77
2018-10-18T19:49:41.894Z,19.63
2018-10-18T19:52:10.058Z,21.13
2018-10-18T19:54:38.094Z,22.07
2018-10-18T19:57:06.239Z,20.70
2018-10-18T19:59:34.383Z,21.53
2018-10-18T20:02:02.555Z,21.10
2018-10-18T20:04:30.602Z,22.10
2018-10-18T20:06:58.779Z,21.17
2018-10-18T20:09:26.905Z,22.83
2018-10-18T20:11:54.997Z,23.73
2018-10-18T20:14:23.094Z,22.33
2018-10-18T20:16:51.193Z,21.13
2018-10-18T20:19:19.299Z,24.33
2018-10-18T20:21:47.375Z,23.83
2018-10-18T20:24:15.454Z,24.60
2018-10-18T20:26:43.578Z,24.53
2018-10-18T20:29:11.614Z,24.17
2018-10-18T20:31:39.710Z,24.87
2018-10-18T20:34:07.828Z,23.87
2018-10-18T20:36:35.931Z,24.27
2018-10-18T20:39:05.413Z,24.33
2018-10-18T20:41:33.538Z,25.63
2018-10-18T20:44:01.628Z,26.20
2018-10-18T20:46:29.768Z,26.17
2018-10-18T20:49:00.941Z,26.20
2018-10-18T20:51:29.443Z,25.43
2018-10-18T20:53:57.567Z,24.70
2018-10-18T20:56:25.667Z,25.80
2018-10-18T20:58:53.833Z,26.00
2018-10-18T21:01:21.919Z,27.33
2018-10-18T21:03:50.024Z,26.00
2018-10-18T21:06:18.196Z,27.10
2018-10-18T21:08:46.213Z,26.33
2018-10-18T21:11:14.392Z,26.00
2018-10-18T21:13:42.447Z,27.40
2018-10-18T21:16:10.579Z,25.83
2018-10-18T21:18:38.663Z,26.57
2018-10-18T21:21:06.820Z,26.47
2018-10-18T21:23:34.855Z,26.50
2018-10-18T21:26:02.975Z,27.90
2018-10-18T21:28:31.063Z,27.80
2018-10-18T21:30:59.159Z,27.70
2018-10-18T21:33:27.259Z,27.87
2018-10-18T21:35:55.326Z,28.97
2018-10-18T21:38:23.451Z,29.20
2018-10-18T21:40:51.539Z,28.70
2018-10-18T21:43:19.619Z,27.90
2018-10-18T21:45:47.799Z,28.40
2018-10-18T21:48:15.979Z,29.13
2018-10-18T21:50:44.065Z,29.67
2018-10-18T21:53:12.213Z,31.07
2018-10-18T21:55:40.266Z,30.17
2018-10-18T21:58:08.392Z,30.93
2018-10-18T22:00:41.818Z,30.13
2018-10-18T22:03:09.998Z,29.90
2018-10-18T22:05:38.051Z,31.07
2018-10-18T22:08:06.145Z,31.03
2018-10-18T22:10:34.304Z,30.60
2018-10-18T22:13:02.658Z,30.97
2018-10-18T22:15:30.763Z,30.73
2018-10-18T22:17:58.871Z,31.20
2018-10-18T22:20:26.938Z,32.17
2018-10-18T22:22:55.121Z,31.90
2018-10-18T22:25:23.187Z,31.53
2018-10-18T22:27:51.279Z,32.87
2018-10-18T22:30:19.359Z,33.10
2018-10-18T22:32:47.434Z,32.77
2018-10-18T22:35:15.620Z,33.33
2018-10-18T22:37:43.647Z,32.93
2018-10-18T22:40:11.744Z,33.57
2018-10-18T22:42:39.846Z,32.90
2018-10-18T22:45:08.360Z,33.70
2018-10-18T22:47:36.558Z,34.80
2018-10-18T22:50:04.671Z,35.37
2018-10-18T22:52:32.819Z,35.73
2018-10-18T22:55:00.916Z,36.17
2018-10-18T22:57:29.028Z,35.43
2018-10-18T22:59:57.094Z,34.77
2018-10-18T23:02:25.203Z,34.23
2018-10-18T23:04:53.323Z,35.37
2018-10-18T23:07:21.352Z,35.70
2018-10-18T23:09:49.462Z,35.50
2018-10-18T23:12:17.671Z,35.53
2018-10-18T23:14:45.754Z,36.63
2018-10-18T23:17:13.950Z,35.47
2018-10-18T23:19:41.969Z,36.13
2018-10-18T23:22:10.039Z,36.00
2018-10-18T23:24:39.283Z,36.23
2018-10-18T23:27:08.081Z,37.57
2018-10-18T23:29:37.095Z,36.73
2018-10-18T23:32:05.196Z,38.07
2018-10-18T23:34:33.274Z,37.07
2018-10-18T23:37:01.364Z,38.37
2018-10-18T23:39:29.892Z,38.87
2018-10-18T23:41:58.004Z,39.10
2018-10-18T23:44:26.530Z,40.87
2018-10-18T23:46:54.635Z,39.73
2018-10-18T23:49:22.702Z,39.47
2018-10-18T23:51:50.807Z,40.13
2018-10-18T23:54:18.890Z,40.70
2018-10-18T23:56:47.045Z,41.60
2018-10-18T23:59:15.119Z,43.70
